createdAt,value
2023-04-02T00:05:58.981Z,11.90
2023-04-02T00:13:06.937Z,11.80
2023-04-02T00:16:31.393Z,11.70
2023-04-02T00:19:59.821Z,11.70
2023-04-02T00:23:25.632Z,11.70
2023-04-02T00:30:15.912Z,11.70
2023-04-02T00:33:43.999Z,11.60
2023-04-02T00:40:33.787Z,11.70
2023-04-02T00:54:25.641Z,11.70
2023-04-02T00:57:52.714Z,11.70
2023-04-02T01:01:19.528Z,11.70
2023-04-02T01:08:32.307Z,11.70
2023-04-02T01:12:24.799Z,11.70
2023-04-02T01:16:00.636Z,11.60
2023-04-02T01:20:10.570Z,11.60
2023-04-02T01:23:44.579Z,11.70
2023-04-02T01:27:18.923Z,11.70
2023-04-02T01:30:49.772Z,11.70
2023-04-02T01:34:19.470Z,11.60
2023-04-02T01:41:26.976Z,11.80
2023-04-02T01:44:52.678Z,11.80
2023-04-02T01:48:22.172Z,11.70
2023-04-02T01:51:53.714Z,11.70
2023-04-02T01:55:30.281Z,11.70
2023-04-02T01:58:54.277Z,11.70
2023-04-02T02:02:19.740Z,11.70
2023-04-02T02:09:23.062Z,11.80
2023-04-02T02:12:48.653Z,11.80
2023-04-02T02:16:18.937Z,11.80
2023-04-02T02:19:47.908Z,11.80
2023-04-02T02:23:14.385Z,11.80
2023-04-02T02:26:40.641Z,11.70
2023-04-02T02:30:13.291Z,11.80
2023-04-02T02:33:45.464Z,11.70
2023-04-02T02:37:18.713Z,11.70
2023-04-02T02:40:49.458Z,11.70
2023-04-02T02:44:21.711Z,11.80
2023-04-02T02:47:48.352Z,11.80
2023-04-02T02:51:24.230Z,11.80
2023-04-02T02:54:54.166Z,11.80
2023-04-02T02:58:27.466Z,11.70
2023-04-02T03:02:09.661Z,11.80
2023-04-02T03:05:34.027Z,11.60
2023-04-02T03:09:17.420Z,11.80
2023-04-02T03:12:50.164Z,11.80
2023-04-02T03:16:22.388Z,11.80
2023-04-02T03:19:54.267Z,11.70
2023-04-02T03:23:25.613Z,11.80
2023-04-02T03:26:58.496Z,11.80
2023-04-02T03:30:38.630Z,11.70
2023-04-02T03:34:14.864Z,11.80
2023-04-02T03:37:47.174Z,11.80
2023-04-02T03:41:19.582Z,11.80
2023-04-02T03:44:53.150Z,11.80
2023-04-02T03:48:25.761Z,11.80
2023-04-02T03:51:58.552Z,11.80
2023-04-02T03:55:28.853Z,11.80
2023-04-02T03:59:06.738Z,11.80
2023-04-02T04:02:46.351Z,11.80
2023-04-02T04:06:19.136Z,11.80
2023-04-02T04:09:51.075Z,11.80
2023-04-02T04:13:23.506Z,11.80
2023-04-02T04:16:54.529Z,11.70
2023-04-02T04:20:28.035Z,11.70
2023-04-02T04:23:52.782Z,11.70
2023-04-02T04:31:06.816Z,11.80
2023-04-02T04:38:21.801Z,11.80
2023-04-02T05:03:33.723Z,11.80
2023-04-02T05:07:07.273Z,11.80
2023-04-02T05:10:42.113Z,11.80
2023-04-02T05:14:17.547Z,11.80
2023-04-02T05:17:51.378Z,11.70
2023-04-02T05:21:25.947Z,11.70
2023-04-02T05:25:02.282Z,11.70
2023-04-02T05:28:39.701Z,11.80
2023-04-02T05:32:12.142Z,11.80
2023-04-02T05:35:43.157Z,11.90
2023-04-02T05:39:12.570Z,11.90
2023-04-02T05:49:50.470Z,12.10
2023-04-02T05:53:22.483Z,12.10
2023-04-02T05:56:56.137Z,12.00
2023-04-02T06:14:31.292Z,12.20
2023-04-02T06:25:01.111Z,12.30
2023-04-02T06:28:34.125Z,12.30
2023-04-02T06:32:02.949Z,12.40
2023-04-02T06:35:27.674Z,12.40
2023-04-02T06:42:36.760Z,12.50
2023-04-02T06:46:26.426Z,12.70
2023-04-02T06:50:13.744Z,12.50
2023-04-02T06:57:13.280Z,12.50
2023-04-02T07:00:43.384Z,12.50
2023-04-02T07:04:12.276Z,12.60
2023-04-02T07:07:42.613Z,12.60
2023-04-02T07:11:08.000Z,12.60
2023-04-02T07:14:31.600Z,12.70
2023-04-02T07:28:11.178Z,13.10
2023-04-02T07:31:34.835Z,13.20
2023-04-02T07:41:55.642Z,13.30
2023-04-02T07:52:07.564Z,13.50
2023-04-02T07:58:56.648Z,13.60
2023-04-02T08:05:51.605Z,12.80
2023-04-02T08:16:06.214Z,13.60
2023-04-02T08:26:19.431Z,13.70
2023-04-02T08:29:42.888Z,13.80
2023-04-02T08:33:07.823Z,13.70
2023-04-02T08:36:37.433Z,13.70
2023-04-02T08:43:42.499Z,13.70
2023-04-02T08:47:08.989Z,13.70
2023-04-02T08:50:37.372Z,13.70
2023-04-02T08:54:08.743Z,13.70
2023-04-02T08:57:48.073Z,13.70
2023-04-02T09:01:28.315Z,13.80
2023-04-02T09:11:53.402Z,13.90
2023-04-02T09:15:29.403Z,13.80
2023-04-02T09:18:55.778Z,13.80
2023-04-02T09:22:24.238Z,13.90
2023-04-02T09:26:03.599Z,13.80
2023-04-02T09:29:44.416Z,14.10
2023-04-02T09:33:09.081Z,14.20
2023-04-02T09:40:27.361Z,14.50
2023-04-02T09:44:15.168Z,14.70
2023-04-02T09:47:42.456Z,14.70
2023-04-02T09:51:16.330Z,14.70
2023-04-02T09:54:42.702Z,14.80
2023-04-02T10:01:41.970Z,14.90
2023-04-02T10:11:57.596Z,15.00
2023-04-02T10:18:59.609Z,15.10
2023-04-02T10:25:58.604Z,15.10
2023-04-02T10:29:58.265Z,15.20
2023-04-02T10:33:33.494Z,15.30
2023-04-02T10:37:08.913Z,15.40
2023-04-02T10:40:37.943Z,15.50
2023-04-02T10:44:20.420Z,15.60
2023-04-02T10:47:55.752Z,15.70
2023-04-02T10:51:34.188Z,15.80
2023-04-02T10:55:05.228Z,15.70
2023-04-02T10:58:34.753Z,15.60
2023-04-02T11:02:04.912Z,15.60
2023-04-02T11:09:05.923Z,15.50
2023-04-02T11:12:44.557Z,15.40
2023-04-02T11:23:11.362Z,15.20
2023-04-02T11:26:43.177Z,15.10
2023-04-02T11:30:23.638Z,15.00
2023-04-02T11:37:35.011Z,15.00
2023-04-02T11:40:59.800Z,15.10
2023-04-02T11:44:25.332Z,15.10
2023-04-02T11:48:31.195Z,15.00
2023-04-02T11:55:36.421Z,15.20
2023-04-02T11:59:16.072Z,15.30
2023-04-02T12:02:59.469Z,15.30
2023-04-02T12:06:39.937Z,15.30
2023-04-02T12:13:55.127Z,15.40
2023-04-02T12:17:29.888Z,15.40
2023-04-02T12:20:56.749Z,15.60
2023-04-02T12:24:25.599Z,15.70
2023-04-02T12:31:17.920Z,15.90
2023-04-02T12:34:47.273Z,15.90
2023-04-02T12:38:22.229Z,15.90
2023-04-02T12:45:28.725Z,15.80
2023-04-02T12:55:51.208Z,15.70
2023-04-02T12:59:39.037Z,15.70
2023-04-02T13:03:18.996Z,15.70
2023-04-02T13:06:54.909Z,15.70
2023-04-02T13:10:27.642Z,14.70
2023-04-02T13:13:51.816Z,15.80
2023-04-02T13:17:44.018Z,15.80
2023-04-02T13:21:25.437Z,15.90
2023-04-02T13:24:50.133Z,15.90
2023-04-02T13:28:13.780Z,15.90
2023-04-02T13:38:26.792Z,16.00
2023-04-02T13:41:54.560Z,16.00
2023-04-02T13:45:27.291Z,15.90
2023-04-02T13:48:53.035Z,15.80
2023-04-02T13:52:18.599Z,15.70
2023-04-02T13:55:44.021Z,15.60
2023-04-02T13:59:07.596Z,15.50
2023-04-02T14:06:08.383Z,15.40
2023-04-02T14:09:53.655Z,15.20
2023-04-02T14:13:39.516Z,15.10
2023-04-02T14:17:22.882Z,15.00
2023-04-02T14:20:56.189Z,14.90
2023-04-02T14:24:28.014Z,14.80
2023-04-02T14:28:04.021Z,14.70
2023-04-02T14:31:37.103Z,14.60
2023-04-02T14:38:40.448Z,14.40
2023-04-02T14:42:14.064Z,14.40
2023-04-02T14:45:56.412Z,14.30
2023-04-02T14:49:27.950Z,14.20
2023-04-02T14:52:58.075Z,14.20
2023-04-02T14:56:24.834Z,14.10
2023-04-02T15:00:01.737Z,14.10
2023-04-02T15:07:06.501Z,14.10
2023-04-02T15:10:34.876Z,14.10
2023-04-02T15:17:28.371Z,13.90
2023-04-02T15:21:09.062Z,13.90
2023-04-02T15:31:47.191Z,13.80
2023-04-02T15:35:28.761Z,13.70
2023-04-02T15:42:30.186Z,13.60
2023-04-02T15:46:10.527Z,13.70
2023-04-02T15:49:43.923Z,13.60
2023-04-02T15:53:28.331Z,13.50
2023-04-02T16:40:38.403Z,13.10
2023-04-02T17:02:04.798Z,12.70
2023-04-02T17:05:33.017Z,12.60
2023-04-02T17:09:09.482Z,12.50
2023-04-02T17:23:12.935Z,12.40
2023-04-02T17:30:14.040Z,12.30
2023-04-02T18:02:39.323Z,11.90
2023-04-02T18:35:04.611Z,11.50
2023-04-02T18:38:41.933Z,11.10
2023-04-02T18:42:15.354Z,11.30
2023-04-02T18:45:56.215Z,11.20
2023-04-02T18:49:29.920Z,11.10
2023-04-02T18:52:53.910Z,11.00
2023-04-02T18:56:22.284Z,10.90
2023-04-02T18:59:55.507Z,10.80
2023-04-02T19:03:27.909Z,10.80
2023-04-02T19:17:36.468Z,10.70
2023-04-02T19:39:18.702Z,10.40
2023-04-02T19:42:47.903Z,10.40
2023-04-02T20:06:37.712Z,10.00
2023-04-02T20:20:16.015Z,9.80
2023-04-02T20:23:41.218Z,9.70
2023-04-02T20:27:04.931Z,9.60
2023-04-02T20:33:56.602Z,9.60
2023-04-02T20:40:52.643Z,9.50
2023-04-02T20:51:07.463Z,9.50
2023-04-02T20:57:56.388Z,9.50
2023-04-02T21:01:22.914Z,9.50
2023-04-02T21:08:10.357Z,9.60
2023-04-02T21:15:01.800Z,9.50
2023-04-02T21:21:50.532Z,9.50
2023-04-02T21:28:37.816Z,9.60
2023-04-02T21:39:09.521Z,9.50
2023-04-02T21:56:16.931Z,9.50
2023-04-02T22:16:43.859Z,9.30
2023-04-02T22:20:09.080Z,9.30
2023-04-02T22:23:35.548Z,9.30
2023-04-02T22:30:23.053Z,9.30
2023-04-02T22:33:48.086Z,9.30
2023-04-02T22:40:37.591Z,9.20
2023-04-02T22:44:03.201Z,9.20
2023-04-02T22:54:15.314Z,9.20
2023-04-02T22:57:40.653Z,9.30
2023-04-02T23:01:06.470Z,9.20
2023-04-02T23:11:22.307Z,9.20
2023-04-02T23:14:47.184Z,9.20
2023-04-02T23:24:58.525Z,9.10
2023-04-02T23:28:22.003Z,9.10
2023-04-02T23:31:48.137Z,9.10
2023-04-02T23:45:24.064Z,9.00
2023-04-02T23:48:50.447Z,8.90
